Time;durP1;ratioP1;P1;durP2;ratioP2;P2;SDS_P1;SDS_P2;PMS_P1;PMS_P2;Temp;Humidity;BMP_temperature;BMP_pressure;BME280_temperature;BME280_humidity;BME280_pressure;Samples;Min_cycle;Max_cycle;Signal;HPM_P1;HPM_P2
2021/11/12 00:16:41;;;;;;;45.20;29.17;;;;;;;-0.32;91.90;100839.03;10418074;28;20045;-76
2021/11/12 00:21:43;;;;;;;43.80;28.67;;;;;;;-0.34;91.99;100840.72;10418921;28;20043;-76
2021/11/12 00:26:46;;;;;;;39.55;28.20;;;;;;;-0.25;92.14;100837.50;10418246;28;20048;-77
2021/11/12 00:32:04;;;;;;;40.97;27.38;;;;;;;-0.24;91.55;100839.22;10417473;28;20049;-73
2021/11/12 00:37:28;;;;;;;39.20;26.77;;;;;;;-0.26;91.70;100835.75;10417158;28;20052;-73
2021/11/12 00:47:55;;;;;;;37.20;26.75;;;;;;;-0.31;92.25;100832.16;10416738;28;20057;-73
2021/11/12 00:57:58;;;;;;;36.83;25.95;;;;;;;-0.33;92.49;100820.91;10417181;28;20056;-74
2021/11/12 01:03:01;;;;;;;28.55;24.20;;;;;;;-0.32;92.29;100820.94;10417417;28;20447;-73
2021/11/12 01:08:03;;;;;;;36.05;25.77;;;;;;;-0.42;91.97;100825.84;10417035;28;20041;-73
2021/11/12 01:13:05;;;;;;;33.53;25.63;;;;;;;-0.42;92.20;100823.28;10399056;28;20049;-74
2021/11/12 01:18:08;;;;;;;34.72;24.63;;;;;;;-0.42;92.19;100816.41;10416703;28;20063;-74
2021/11/12 01:23:09;;;;;;;29.60;25.45;;;;;;;-0.40;91.98;100819.00;10415359;28;20075;-73
2021/11/12 01:28:11;;;;;;;40.38;26.17;;;;;;;-0.40;91.81;100819.00;10416381;28;20041;-73
2021/11/12 01:33:14;;;;;;;34.35;25.23;;;;;;;-0.26;91.18;100823.69;10416411;28;20116;-73
2021/11/12 01:38:16;;;;;;;28.20;24.45;;;;;;;-0.39;90.21;100823.34;10417011;28;20057;-73
2021/11/12 01:43:25;;;;;;;32.58;24.30;;;;;;;-0.38;91.06;100819.94;10417442;28;20042;-73
2021/11/12 01:59:20;;;;;;;39.35;27.48;;;;;;;0.26;90.37;100800.75;10322596;28;20054;-74
2021/11/12 02:04:25;;;;;;;40.63;27.40;;;;;;;0.15;91.50;100797.94;10337913;28;20092;-74
2021/11/12 02:09:28;;;;;;;36.35;27.05;;;;;;;-0.06;92.53;100805.19;10322035;28;20066;-74
2021/11/12 02:14:31;;;;;;;40.25;28.55;;;;;;;0.25;93.37;100809.38;10337188;28;20073;-74
2021/11/12 02:19:35;;;;;;;43.97;27.83;;;;;;;0.54;93.03;100798.78;10337364;28;20050;-74
2021/11/12 02:24:44;;;;;;;41.30;26.95;;;;;;;0.78;91.81;100790.66;10336992;28;20035;-72
2021/11/12 02:29:54;;;;;;;42.00;27.20;;;;;;;0.48;92.47;100782.28;10337158;28;20117;-72
2021/11/12 02:34:59;;;;;;;52.80;30.08;;;;;;;0.40;93.89;100778.69;10377779;28;20061;-73
2021/11/12 02:40:02;;;;;;;55.08;29.77;;;;;;;0.50;95.25;100790.09;10421258;28;20099;-72
2021/11/12 02:45:04;;;;;;;55.95;29.58;;;;;;;0.73;96.05;100778.47;10421795;28;20079;-72
2021/11/12 02:50:06;;;;;;;59.72;31.90;;;;;;;0.83;97.36;100787.31;10420927;28;20499;-72
2021/11/12 02:55:08;;;;;;;67.03;32.50;;;;;;;0.96;97.88;100780.66;10420449;28;20046;-73
2021/11/12 03:00:13;;;;;;;66.25;31.15;;;;;;;1.12;98.32;100785.28;10419540;28;20533;-73
2021/11/12 03:05:15;;;;;;;75.95;34.25;;;;;;;1.22;98.39;100781.13;10420773;28;20050;-72
2021/11/12 03:10:16;;;;;;;67.70;32.55;;;;;;;1.29;98.66;100777.81;10420768;28;20103;-72
2021/11/12 03:15:19;;;;;;;72.60;31.80;;;;;;;1.44;98.31;100769.44;10420821;28;20041;-73
2021/11/12 03:20:22;;;;;;;69.03;31.00;;;;;;;1.48;98.27;100777.28;10420032;28;20053;-73
2021/11/12 03:31:18;;;;;;;72.93;33.33;;;;;;;1.46;98.37;100771.22;10418602;28;20104;-72
2021/11/12 03:49:33;;;;;;;82.50;35.67;;;;;;;1.89;97.28;100791.75;10420631;28;20045;-72
2021/11/12 04:18:57;;;;;;;71.40;31.33;;;;;;;2.00;95.57;100796.28;10419118;28;20049;-73
2021/11/12 05:43:47;;;;;;;47.20;26.98;;;;;;;2.36;93.96;100750.06;10438972;28;20083;-76
2021/11/12 05:59:32;;;;;;;51.80;27.83;;;;;;;2.34;93.38;100738.78;10456667;28;20051;-76
2021/11/12 06:04:34;;;;;;;42.72;26.55;;;;;;;2.21;93.91;100736.06;10439422;28;20049;-76
2021/11/12 06:09:36;;;;;;;49.53;27.38;;;;;;;2.31;95.04;100739.63;10457489;28;20060;-76
2021/11/12 06:14:40;;;;;;;40.60;25.38;;;;;;;2.40;93.74;100731.97;10457616;28;20048;-76
2021/11/12 06:19:41;;;;;;;48.95;28.30;;;;;;;2.31;93.61;100721.47;10457235;28;20049;-76
2021/11/12 06:24:43;;;;;;;48.53;26.45;;;;;;;2.39;93.97;100717.25;10439021;28;20422;-76
2021/11/12 06:29:46;;;;;;;45.10;26.80;;;;;;;2.37;93.21;100721.53;10440262;28;20114;-77
2021/11/12 06:34:48;;;;;;;53.20;28.33;;;;;;;2.22;94.59;100722.22;10445289;28;20052;-76
2021/11/12 06:39:50;;;;;;;47.95;27.00;;;;;;;2.37;94.21;100731.94;10429172;28;20140;-76
2021/11/12 06:54:55;;;;;;;35.53;25.67;;;;;;;2.32;93.24;100707.66;10463151;28;20098;-76
2021/11/12 06:59:57;;;;;;;49.10;25.75;;;;;;;2.24;94.47;100715.31;10446198;28;20037;-77
2021/11/12 07:04:59;;;;;;;50.55;27.50;;;;;;;2.57;91.68;100720.91;10463221;28;20454;-76
2021/11/12 07:10:00;;;;;;;55.22;28.50;;;;;;;2.37;93.84;100718.94;10462912;28;20053;-76
2021/11/12 07:15:03;;;;;;;46.45;26.25;;;;;;;2.63;92.49;100714.06;10463336;28;20045;-76
2021/11/12 07:20:05;;;;;;;36.97;24.73;;;;;;;2.74;91.42;100709.00;10463137;28;20041;-76
2021/11/12 07:25:08;;;;;;;33.90;23.10;;;;;;;2.78;91.06;100702.97;10463069;28;20090;-76
2021/11/12 07:30:14;;;;;;;38.58;24.02;;;;;;;2.96;90.47;100700.56;10462289;28;20076;-76
2021/11/12 07:35:21;;;;;;;28.45;21.20;;;;;;;3.11;88.69;100699.00;10462207;28;20033;-76
2021/11/12 07:40:26;;;;;;;26.27;20.98;;;;;;;2.88;89.84;100690.94;10461017;28;20053;-76
2021/11/12 07:45:37;;;;;;;27.38;19.13;;;;;;;3.17;88.47;100683.44;10444368;28;20040;-76
2021/11/12 07:50:39;;;;;;;22.65;19.27;;;;;;;3.37;87.12;100681.91;10426904;28;20052;-76
2021/11/12 07:55:40;;;;;;;23.42;18.73;;;;;;;3.45;86.10;100681.94;10462012;28;20041;-76
2021/11/12 08:00:42;;;;;;;20.08;17.10;;;;;;;3.39;86.17;100677.56;10462665;28;20045;-76
2021/11/12 08:05:48;;;;;;;26.52;17.55;;;;;;;3.34;86.53;100671.47;10445886;28;20106;-76
2021/11/12 08:11:13;;;;;;;20.35;18.25;;;;;;;3.29;86.62;100674.03;10464257;28;20470;-75
2021/11/12 08:21:41;;;;;;;19.88;16.55;;;;;;;3.87;83.67;100646.69;10462763;28;20108;-76
2021/11/12 08:27:34;;;;;;;22.35;15.85;;;;;;;3.74;83.88;100646.59;10442661;28;20045;-76
2021/11/12 08:32:27;;;;;;;22.58;16.38;;;;;;;4.02;82.97;100651.94;10456035;28;20106;-76
2021/11/12 08:37:42;;;;;;;23.40;17.73;;;;;;;4.32;82.34;100643.41;10441748;28;20155;-77
2021/11/12 08:42:58;;;;;;;27.05;17.75;;;;;;;4.32;81.49;100634.72;10460876;28;20052;-76
2021/11/12 08:48:05;;;;;;;36.25;19.92;;;;;;;4.42;81.05;100632.16;10441490;28;20052;-77
2021/11/12 08:53:09;;;;;;;24.17;18.42;;;;;;;4.53;80.50;100630.47;10441004;28;20056;-77
2021/11/12 08:58:11;;;;;;;22.05;17.35;;;;;;;4.65;79.20;100624.41;10459993;28;20044;-77
2021/11/12 09:03:13;;;;;;;18.15;16.25;;;;;;;4.76;79.21;100607.06;10458546;28;20050;-77
2021/11/12 09:08:15;;;;;;;16.63;14.82;;;;;;;4.83;77.54;100615.75;10459384;28;20060;-76
2021/11/12 09:13:23;;;;;;;17.83;14.18;;;;;;;4.69;78.48;100607.94;10459280;28;20124;-76
2021/11/12 09:18:25;;;;;;;33.45;15.57;;;;;;;4.66;78.42;100604.44;10443282;28;20486;-76
2021/11/12 09:23:26;;;;;;;19.02;15.93;;;;;;;4.41;79.77;100604.38;10459245;28;20059;-77
2021/11/12 09:28:28;;;;;;;15.10;13.70;;;;;;;4.53;79.29;100595.75;10442213;28;20045;-76
2021/11/12 09:33:30;;;;;;;16.73;14.60;;;;;;;4.46;79.76;100583.56;10459346;28;20045;-79
2021/11/12 09:38:31;;;;;;;16.00;14.32;;;;;;;4.70;78.76;100572.34;10442583;28;20049;-80
2021/11/12 09:43:33;;;;;;;14.38;13.07;;;;;;;4.88;77.04;100574.94;10442266;28;20041;-76
2021/11/12 09:48:35;;;;;;;15.75;14.00;;;;;;;4.93;76.97;100564.53;10449763;28;20063;-76
2021/11/12 09:53:37;;;;;;;14.68;13.27;;;;;;;4.91;77.07;100555.81;10476043;28;20120;-76
2021/11/12 09:58:39;;;;;;;14.50;12.52;;;;;;;4.89;76.92;100553.22;10485322;28;20105;-76
2021/11/12 10:03:46;;;;;;;17.58;12.90;;;;;;;4.87;77.61;100546.28;10501883;28;20045;-76
2021/11/12 10:08:49;;;;;;;13.82;12.40;;;;;;;4.98;76.61;100542.81;10513289;28;20063;-76
2021/11/12 10:14:09;;;;;;;13.52;12.13;;;;;;;5.02;76.36;100531.50;10475514;28;20048;-75
2021/11/12 10:19:13;;;;;;;13.90;12.50;;;;;;;5.29;75.15;100527.13;10469269;28;20082;-75
2021/11/12 10:24:18;;;;;;;14.20;12.65;;;;;;;5.45;74.46;100526.22;10493383;28;20048;-76
2021/11/12 10:29:29;;;;;;;14.13;12.82;;;;;;;5.52;73.96;100514.88;10493018;28;20048;-75
2021/11/12 10:34:34;;;;;;;12.40;11.27;;;;;;;5.47;74.09;100500.13;10494637;28;20049;-76
2021/11/12 10:39:42;;;;;;;13.30;12.10;;;;;;;6.49;70.14;100480.44;10499113;28;20048;-73
2021/11/12 10:45:00;;;;;;;11.15;10.15;;;;;;;7.06;67.68;100457.25;10500511;28;20098;-74
2021/11/12 10:50:09;;;;;;;9.88;9.07;;;;;;;7.98;65.07;100453.50;10496245;28;20140;-74
2021/11/12 10:55:24;;;;;;;12.20;8.55;;;;;;;8.71;62.09;100465.44;10498796;28;20086;-75
2021/11/12 11:00:36;;;;;;;10.10;9.20;;;;;;;9.68;58.47;100445.22;10495879;28;20048;-75
2021/11/12 11:05:43;;;;;;;10.43;9.48;;;;;;;9.34;58.32;100438.03;10509136;28;20516;-75
2021/11/12 11:10:50;;;;;;;8.80;7.90;;;;;;;9.74;59.94;100426.69;10514928;28;20044;-75
2021/11/12 11:16:18;;;;;;;8.70;7.90;;;;;;;10.35;56.07;100410.41;10492882;28;20186;-76
2021/11/12 11:26:39;;;;;;;9.95;9.10;;;;;;;9.44;58.22;100396.75;10490927;28;20056;-75
2021/11/12 11:31:42;;;;;;;9.75;8.95;;;;;;;8.98;61.30;100398.53;10497200;28;20131;-76
2021/11/12 11:36:45;;;;;;;9.77;8.77;;;;;;;8.73;61.71;100389.44;10492935;28;20131;-75
2021/11/12 11:41:49;;;;;;;10.30;9.40;;;;;;;8.52;62.49;100391.53;10512081;28;20108;-76
2021/11/12 11:46:54;;;;;;;11.90;10.90;;;;;;;8.31;62.77;100376.16;10506648;28;20055;-75
2021/11/12 11:52:01;;;;;;;11.90;10.80;;;;;;;8.31;62.88;100363.91;10487508;28;20052;-77
2021/11/12 11:57:14;;;;;;;10.65;9.65;;;;;;;8.62;62.07;100345.06;10504996;28;20041;-77
2021/11/12 12:02:17;;;;;;;9.13;8.43;;;;;;;8.81;60.30;100348.22;10486641;28;20055;-76
2021/11/12 12:07:20;;;;;;;11.40;10.27;;;;;;;8.24;63.17;100350.97;10505711;28;20033;-77
2021/11/12 12:12:42;;;;;;;12.30;10.05;;;;;;;7.80;63.59;100336.84;10506731;28;20127;-77
2021/11/12 12:17:50;;;;;;;10.55;9.63;;;;;;;7.73;64.58;100335.22;10504379;28;20044;-76
2021/11/12 13:23:07;;;;;;;12.73;11.38;;;;;;;6.30;71.70;100265.63;10503799;28;20521;-77
2021/11/12 13:28:19;;;;;;;11.20;10.25;;;;;;;6.49;70.72;100261.06;10486882;28;20054;-78
2021/11/12 13:33:25;;;;;;;12.15;11.07;;;;;;;6.31;71.31;100251.69;10502858;28;20048;-77
2021/11/12 13:38:39;;;;;;;11.80;10.80;;;;;;;6.44;71.21;100242.84;10485667;28;20109;-77
2021/11/12 13:43:43;;;;;;;14.40;10.70;;;;;;;6.34;71.26;100235.16;10500914;28;20068;-77
2021/11/12 13:48:51;;;;;;;13.27;11.45;;;;;;;6.17;71.93;100236.19;10500814;28;20055;-77
2021/11/12 13:53:54;;;;;;;12.43;11.27;;;;;;;6.26;71.36;100243.91;10502108;28;20394;-76
2021/11/12 13:59:13;;;;;;;12.27;11.18;;;;;;;6.16;71.48;100233.59;10486547;28;20131;-79
2021/11/12 14:04:27;;;;;;;12.95;11.75;;;;;;;6.18;71.47;100243.13;10499205;28;20065;-79
2021/11/12 14:09:33;;;;;;;13.40;12.02;;;;;;;6.30;70.91;100235.16;10499907;28;20128;-77
2021/11/12 14:14:36;;;;;;;14.73;13.35;;;;;;;6.19;71.71;100228.31;10499361;28;20041;-77
2021/11/12 14:24:47;;;;;;;16.58;13.30;;;;;;;5.88;72.43;100225.13;10505100;28;20524;-76
2021/11/12 14:40:18;;;;;;;15.35;13.73;;;;;;;5.56;73.53;100221.06;10499511;28;20048;-76
2021/11/12 14:45:28;;;;;;;15.35;13.85;;;;;;;5.51;74.03;100213.28;10480851;28;20049;-75
2021/11/12 14:55:41;;;;;;;17.13;15.35;;;;;;;5.44;74.03;100202.91;10506102;28;20399;-76
2021/11/12 15:00:44;;;;;;;24.95;18.42;;;;;;;5.20;75.31;100204.84;10505879;28;20136;-77
2021/11/12 15:05:46;;;;;;;22.52;17.65;;;;;;;5.03;76.23;100196.28;10506210;28;20100;-76
2021/11/12 15:10:51;;;;;;;23.10;18.27;;;;;;;5.34;75.03;100199.53;10504894;28;20110;-76
2021/11/12 15:15:53;;;;;;;23.30;18.75;;;;;;;5.19;75.38;100184.88;10486575;28;20098;-76
2021/11/12 15:20:57;;;;;;;26.27;20.08;;;;;;;5.16;76.29;100184.88;10504962;28;20136;-76
2021/11/12 15:26:17;;;;;;;23.42;20.33;;;;;;;5.09;76.47;100193.66;10486744;28;20045;-77
2021/11/12 15:31:26;;;;;;;29.13;22.52;;;;;;;4.82;77.45;100192.06;10486990;28;20040;-76
2021/11/12 15:36:29;;;;;;;34.80;22.23;;;;;;;4.87;77.45;100192.03;10485566;28;20087;-76
2021/11/12 15:42:07;;;;;;;36.78;24.75;;;;;;;4.87;77.54;100184.22;10505550;28;20417;-76
2021/11/12 15:52:24;;;;;;;52.67;28.45;;;;;;;4.52;79.52;100193.97;10485678;28;20067;-76
2021/11/12 16:03:09;;;;;;;51.10;28.35;;;;;;;4.45;79.88;100184.44;10506045;28;20150;-76
2021/11/12 16:13:22;;;;;;;63.45;33.08;;;;;;;4.40;81.52;100209.63;10484331;28;20426;-76
2021/11/12 16:29:04;;;;;;;70.72;33.70;;;;;;;4.38;81.50;100218.31;10502401;28;20051;-76
2021/11/12 16:34:18;;;;;;;69.97;36.60;;;;;;;4.26;81.75;100217.50;10470429;28;20118;-75
2021/11/12 16:39:27;;;;;;;84.68;37.65;;;;;;;4.07;82.54;100218.38;10504092;28;20041;-76
2021/11/12 16:44:36;;;;;;;79.90;37.45;;;;;;;3.97;83.31;100225.34;10504661;28;20040;-76
2021/11/12 16:49:54;;;;;;;86.07;38.35;;;;;;;4.27;82.64;100218.34;10502311;28;20044;-76
2021/11/12 16:55:11;;;;;;;81.38;37.22;;;;;;;4.05;84.17;100220.16;10505815;28;20082;-77
2021/11/12 17:16:36;;;;;;;94.07;41.92;;;;;;;3.84;84.54;100228.84;10418000;28;20561;-77
2021/11/12 17:22:30;;;;;;;83.55;39.25;;;;;;;3.90;84.40;100236.66;10400611;28;20053;-75
2021/11/12 17:48:40;;;;;;;86.47;40.83;;;;;;;3.70;85.74;100209.81;10454628;28;20452;-78
2021/11/12 18:01:32;;;;;;;90.55;42.50;;;;;;;3.61;85.61;100210.69;10490414;28;20131;-77
2021/11/12 18:10:33;;;;;;;102.15;42.28;;;;;;;3.46;86.90;100227.16;10503775;28;20453;-78
2021/11/12 18:21:32;;;;;;;93.15;42.50;;;;;;;3.32;87.20;100204.59;10505043;28;20504;-78
2021/11/12 21:45:14;;;;;;;102.22;44.95;;;;;;;2.71;89.44;100036.69;10499179;28;20051;-77
2021/11/12 21:50:16;;;;;;;101.20;43.50;;;;;;;2.69;89.67;100033.22;10499727;28;20049;-77
2021/11/12 21:55:17;;;;;;;105.88;45.78;;;;;;;2.82;89.37;100029.75;10499220;28;20548;-76
2021/11/12 22:00:20;;;;;;;107.97;47.17;;;;;;;2.85;89.71;100021.09;10482746;28;20506;-76
2021/11/12 22:05:21;;;;;;;109.20;45.75;;;;;;;3.09;89.02;100010.66;10474659;28;20048;-76
2021/11/12 22:10:23;;;;;;;107.63;47.35;;;;;;;3.16;88.91;100014.13;10508719;28;20102;-75
2021/11/12 22:15:25;;;;;;;105.30;42.80;;;;;;;3.12;89.21;100015.00;10489677;28;20041;-76
2021/11/12 22:20:28;;;;;;;104.40;44.88;;;;;;;3.06;89.19;100018.50;10489491;28;20060;-75
2021/11/12 22:25:30;;;;;;;101.07;45.05;;;;;;;3.23;87.88;100010.63;10507250;28;20115;-77
2021/11/12 22:30:33;;;;;;;105.40;44.17;;;;;;;3.26;88.38;100002.84;10472923;28;20090;-75
2021/11/12 22:35:36;;;;;;;96.68;41.25;;;;;;;3.24;88.82;100005.47;10506465;28;20567;-76
2021/11/12 22:40:40;;;;;;;88.43;40.45;;;;;;;3.54;87.63;100001.91;10488925;28;20516;-77
2021/11/12 22:45:43;;;;;;;91.60;41.65;;;;;;;3.39;88.02;99991.56;10472531;28;20051;-76
2021/11/12 22:50:46;;;;;;;85.70;39.17;;;;;;;3.43;87.35;100005.41;10508103;28;20063;-76
2021/11/12 22:55:48;;;;;;;88.03;39.78;;;;;;;3.49;87.21;100000.16;10489295;28;20048;-76
2021/11/12 23:00:49;;;;;;;81.65;38.40;;;;;;;3.65;86.78;99999.25;10489197;28;20060;-77
2021/11/12 23:05:51;;;;;;;83.72;39.70;;;;;;;3.59;86.26;99993.22;10488312;28;20086;-77
2021/11/12 23:10:53;;;;;;;82.65;35.78;;;;;;;3.53;86.49;100004.50;10508750;28;20080;-76
2021/11/12 23:15:57;;;;;;;80.85;37.63;;;;;;;3.51;86.16;99990.66;10487866;28;20048;-77
2021/11/12 23:20:59;;;;;;;77.80;37.72;;;;;;;3.64;86.35;99984.53;10508609;28;20044;-77
2021/11/12 23:26:02;;;;;;;83.80;38.55;;;;;;;3.54;85.88;99985.41;10491162;28;20052;-76
2021/11/12 23:31:04;;;;;;;86.22;39.72;;;;;;;3.59;86.70;99982.84;10489139;28;20045;-76
2021/11/12 23:36:06;;;;;;;81.28;36.25;;;;;;;3.63;85.74;99974.13;10505300;28;20098;-75
2021/11/12 23:41:07;;;;;;;79.30;36.67;;;;;;;3.37;86.54;99969.06;10486758;28;20110;-75
2021/11/12 23:46:09;;;;;;;77.13;37.72;;;;;;;3.39;86.97;99960.38;10485836;28;20072;-77
2021/11/12 23:51:12;;;;;;;72.13;36.72;;;;;;;3.47;86.45;99953.41;10487006;28;20048;-76
2021/11/12 23:56:13;;;;;;;72.90;35.40;;;;;;;3.35;87.18;99960.38;10486748;28;20037;-77
